Time;durP1;ratioP1;P1;durP2;ratioP2;P2;SDS_P1;SDS_P2;PMS_P1;PMS_P2;Temp;Humidity;BMP_temperature;BMP_pressure;BME280_temperature;BME280_humidity;BME280_pressure;Samples;Min_cycle;Max_cycle;Signal;HPM_P1;HPM_P2
2022/01/10 00:00:09;;;;;;;12.70;5.17;;;;;;;4.54;95.67;100826.31;5051667;28;20190;-71
2022/01/10 00:02:39;;;;;;;20.47;6.27;;;;;;;4.56;95.62;100823.84;5051710;28;20225;-70
2022/01/10 00:05:05;;;;;;;16.73;5.10;;;;;;;4.55;95.95;100828.03;5050262;28;20211;-70
2022/01/10 00:07:30;;;;;;;15.60;5.13;;;;;;;4.53;95.90;100833.84;5052941;28;20278;-71
2022/01/10 00:09:55;;;;;;;15.17;5.60;;;;;;;4.49;95.54;100842.13;5071379;28;20638;-70
2022/01/10 00:12:21;;;;;;;17.80;5.73;;;;;;;4.46;95.69;100850.47;5070135;28;20260;-70
2022/01/10 00:14:46;;;;;;;13.60;5.73;;;;;;;4.43;95.62;100849.47;5071560;28;20230;-71
2022/01/10 00:17:11;;;;;;;11.37;5.50;;;;;;;4.39;95.73;100850.13;5071518;28;20298;-71
2022/01/10 00:19:37;;;;;;;15.60;5.93;;;;;;;4.33;95.45;100854.94;5071192;28;20564;-70
2022/01/10 00:22:03;;;;;;;14.33;5.70;;;;;;;4.26;95.33;100851.25;5064049;28;20591;-71
2022/01/10 00:24:28;;;;;;;13.30;6.00;;;;;;;4.21;95.74;100862.88;5062403;28;20181;-70
2022/01/10 00:26:54;;;;;;;14.10;5.90;;;;;;;4.22;95.76;100874.72;5071254;28;20217;-71
2022/01/10 00:29:19;;;;;;;16.57;5.73;;;;;;;4.22;95.82;100871.31;5070965;28;20185;-70
2022/01/10 00:31:44;;;;;;;14.23;6.10;;;;;;;4.20;95.52;100883.94;5071283;28;20265;-70
2022/01/10 00:34:10;;;;;;;19.00;6.20;;;;;;;4.20;95.01;100883.94;5069684;28;20614;-71
2022/01/10 00:36:36;;;;;;;20.20;6.27;;;;;;;4.15;95.80;100887.06;5070949;28;20201;-70
2022/01/10 00:39:03;;;;;;;18.67;6.47;;;;;;;4.13;95.53;100894.59;5052801;28;20189;-70
2022/01/10 00:41:29;;;;;;;12.20;5.63;;;;;;;4.10;95.54;100894.44;5069432;28;20216;-71
2022/01/10 00:43:54;;;;;;;15.97;6.20;;;;;;;4.04;95.17;100896.69;5070992;28;20177;-71
2022/01/10 00:46:19;;;;;;;15.77;5.50;;;;;;;4.00;95.14;100899.03;5069068;28;20232;-71
2022/01/10 00:48:45;;;;;;;15.87;6.03;;;;;;;3.94;95.70;100902.16;5070759;28;20756;-70
2022/01/10 00:51:10;;;;;;;17.83;6.03;;;;;;;3.91;95.29;100913.81;5070822;28;20208;-70
2022/01/10 00:53:37;;;;;;;12.40;5.83;;;;;;;3.88;95.60;100914.53;5070677;28;20204;-70
2022/01/10 00:56:03;;;;;;;16.80;6.43;;;;;;;3.89;95.32;100922.97;5069397;28;20648;-70
2022/01/10 00:58:28;;;;;;;15.30;6.60;;;;;;;3.89;95.50;100920.44;5070233;28;20184;-71
2022/01/10 01:00:54;;;;;;;17.97;6.43;;;;;;;3.89;95.74;100931.44;5069128;28;20228;-71
2022/01/10 01:03:19;;;;;;;16.00;6.07;;;;;;;3.92;96.12;100940.84;5069167;28;20284;-70
2022/01/10 01:05:45;;;;;;;16.03;6.17;;;;;;;3.95;96.10;100939.31;5069137;28;20285;-70
2022/01/10 01:08:12;;;;;;;23.03;6.93;;;;;;;3.98;96.25;100946.19;5068671;28;20235;-70
2022/01/10 01:16:11;;;;;;;12.60;5.97;;;;;;;4.04;95.86;100967.63;5068792;28;20647;-70
2022/01/10 01:24:05;;;;;;;12.40;5.47;;;;;;;4.14;96.05;100989.19;5048466;28;20194;-70
2022/01/10 01:26:44;;;;;;;16.33;5.73;;;;;;;4.14;95.95;100995.13;5048341;28;20208;-71
2022/01/10 01:29:13;;;;;;;15.37;6.03;;;;;;;4.14;96.15;100997.66;5048470;28;20182;-70
2022/01/10 01:31:39;;;;;;;22.03;6.60;;;;;;;4.09;95.96;100996.56;5032110;28;20192;-71
2022/01/10 01:34:05;;;;;;;14.50;6.60;;;;;;;4.11;96.12;101009.31;5064369;28;20196;-71
2022/01/10 01:36:32;;;;;;;18.73;6.27;;;;;;;4.11;96.64;101012.72;5085396;28;20201;-71
2022/01/10 01:38:58;;;;;;;13.20;5.70;;;;;;;4.14;96.44;101017.91;5051880;28;20188;-70
2022/01/10 01:43:53;;;;;;;20.10;7.33;;;;;;;4.11;96.56;101032.13;5068414;28;20197;-70
2022/01/10 01:46:19;;;;;;;20.03;6.63;;;;;;;4.13;96.24;101041.53;5069584;28;20208;-71
2022/01/10 01:48:45;;;;;;;13.50;5.90;;;;;;;4.15;96.60;101042.44;5067986;28;20188;-70
2022/01/10 01:51:11;;;;;;;16.53;5.73;;;;;;;4.16;95.91;101059.41;5068077;28;20193;-71
2022/01/10 01:53:37;;;;;;;16.87;6.40;;;;;;;4.17;96.42;101057.72;5069504;28;20187;-71
2022/01/10 01:56:07;;;;;;;14.93;6.27;;;;;;;4.18;96.25;101057.81;5068042;28;20219;-70
2022/01/10 01:58:35;;;;;;;13.47;5.97;;;;;;;4.19;95.97;101073.91;5067115;28;20771;-70
2022/01/10 02:01:01;;;;;;;14.00;6.10;;;;;;;4.19;96.22;101073.91;5046143;28;20201;-70
2022/01/10 02:03:26;;;;;;;13.50;4.83;;;;;;;4.20;96.12;101071.44;5058291;28;20197;-70
2022/01/10 02:05:58;;;;;;;18.83;5.40;;;;;;;4.20;96.49;101073.09;5059113;28;20263;-71
2022/01/10 02:08:24;;;;;;;13.27;5.23;;;;;;;4.21;96.09;101078.25;5067116;28;20185;-71
2022/01/10 02:10:49;;;;;;;15.73;5.47;;;;;;;4.22;96.02;101085.03;5058322;28;20250;-71
2022/01/10 02:13:17;;;;;;;9.33;4.53;;;;;;;4.24;96.24;101082.59;5058161;28;20188;-71
2022/01/10 02:15:48;;;;;;;18.63;5.23;;;;;;;4.24;95.96;101095.25;5060771;28;20185;-70
2022/01/10 02:18:16;;;;;;;15.70;4.80;;;;;;;4.26;95.80;101091.09;5038072;28;20182;-70
2022/01/10 02:20:46;;;;;;;13.33;4.60;;;;;;;4.23;96.10;101101.97;5061023;28;20700;-71
2022/01/10 02:23:14;;;;;;;16.07;4.87;;;;;;;4.28;96.02;101097.13;5062863;28;20185;-71
2022/01/10 02:26:03;;;;;;;17.00;5.70;;;;;;;4.29;96.45;101114.97;5060658;28;20272;-70
2022/01/10 02:28:32;;;;;;;17.93;6.20;;;;;;;4.31;96.02;101113.34;5054786;28;20200;-71
2022/01/10 02:30:58;;;;;;;12.70;5.40;;;;;;;4.32;96.34;101127.75;5066160;28;20181;-71
2022/01/10 02:33:25;;;;;;;16.27;6.00;;;;;;;4.35;96.63;101132.09;5063752;28;20178;-70
2022/01/10 02:36:02;;;;;;;16.73;6.27;;;;;;;4.37;96.08;101136.44;5061700;28;20262;-71
2022/01/10 02:38:28;;;;;;;16.07;6.27;;;;;;;4.37;96.18;101133.06;5061968;28;20672;-70
2022/01/10 02:40:55;;;;;;;15.60;6.50;;;;;;;4.38;96.11;101135.66;5062446;28;20194;-70
2022/01/10 02:43:20;;;;;;;16.07;7.07;;;;;;;4.41;96.29;101140.00;5043266;28;20196;-70
2022/01/10 02:45:47;;;;;;;18.43;7.13;;;;;;;4.43;96.22;101143.50;5059308;28;20592;-71
2022/01/10 02:48:12;;;;;;;16.77;8.47;;;;;;;4.43;96.48;101140.97;5049713;28;20189;-70
2022/01/10 02:50:37;;;;;;;16.93;8.07;;;;;;;4.43;96.46;101159.59;5061893;28;20199;-71
2022/01/10 02:53:03;;;;;;;16.43;7.87;;;;;;;4.44;96.07;101165.50;5082604;28;20189;-71
2022/01/10 02:55:30;;;;;;;18.90;8.07;;;;;;;4.44;96.31;101168.03;5059648;28;20194;-70
2022/01/10 02:57:56;;;;;;;18.07;8.27;;;;;;;4.44;96.31;101171.44;5042883;28;20248;-70
2022/01/10 03:00:24;;;;;;;23.53;8.43;;;;;;;4.45;96.42;101183.31;5066228;28;20223;-70
2022/01/10 03:02:51;;;;;;;15.47;8.30;;;;;;;4.45;96.23;101183.31;5056603;28;20237;-71
2022/01/10 03:05:19;;;;;;;16.73;8.90;;;;;;;4.46;96.28;101187.59;5060311;28;20728;-71
2022/01/10 03:07:45;;;;;;;19.60;9.20;;;;;;;4.46;96.10;101192.66;5056179;28;20933;-70
2022/01/10 03:10:11;;;;;;;24.83;9.23;;;;;;;4.46;95.99;101197.72;5077583;28;20269;-70
2022/01/10 03:12:37;;;;;;;21.73;9.03;;;;;;;4.46;96.15;101204.50;5063366;28;20185;-70
2022/01/10 03:15:07;;;;;;;22.50;10.20;;;;;;;4.44;96.30;101204.41;5060018;28;20682;-70
2022/01/10 03:17:33;;;;;;;22.07;9.87;;;;;;;4.46;96.27;101218.00;5057052;28;20702;-70
2022/01/10 03:19:59;;;;;;;21.20;9.57;;;;;;;4.47;96.33;101218.91;5055604;28;20196;-71
2022/01/10 03:22:26;;;;;;;25.67;9.53;;;;;;;4.47;96.16;101223.97;5052784;28;20300;-70
2022/01/10 03:24:52;;;;;;;22.27;10.97;;;;;;;4.47;96.34;101234.94;5064003;28;20638;-70
2022/01/10 03:27:18;;;;;;;19.53;10.30;;;;;;;4.47;95.65;101232.41;5052575;28;20293;-71
2022/01/10 03:29:43;;;;;;;17.63;10.10;;;;;;;4.48;96.22;101235.84;5057606;28;20268;-70
2022/01/10 03:32:11;;;;;;;24.47;10.63;;;;;;;4.47;96.11;101236.63;5066698;28;20269;-71
2022/01/10 03:34:37;;;;;;;27.63;10.93;;;;;;;4.48;96.08;101241.78;5057927;28;20747;-70
2022/01/10 03:37:02;;;;;;;21.40;11.20;;;;;;;4.47;96.08;101249.31;5056506;28;20296;-70
2022/01/10 03:39:28;;;;;;;29.27;11.90;;;;;;;4.46;96.08;101245.03;5057518;28;20232;-70
2022/01/10 03:41:53;;;;;;;25.77;11.13;;;;;;;4.47;96.40;101251.84;5056247;28;20233;-71
2022/01/10 03:44:18;;;;;;;25.57;11.77;;;;;;;4.48;96.21;101262.06;5060088;28;20185;-71
2022/01/10 03:46:44;;;;;;;21.67;11.50;;;;;;;4.47;96.12;101265.38;5068197;28;20616;-71
2022/01/10 03:49:10;;;;;;;23.13;11.80;;;;;;;4.48;96.35;101272.22;5069383;28;20243;-71
2022/01/10 03:51:35;;;;;;;26.50;12.70;;;;;;;4.50;96.55;101277.34;5055934;28;20678;-71
2022/01/10 03:54:01;;;;;;;26.73;12.07;;;;;;;4.47;96.03;101275.50;5040500;28;20188;-71
2022/01/10 03:56:29;;;;;;;20.07;11.13;;;;;;;4.50;95.81;101287.47;5066207;28;20578;-71
2022/01/10 03:58:57;;;;;;;24.43;12.87;;;;;;;4.50;96.23;101290.88;5054672;28;20190;-71
2022/01/10 04:01:23;;;;;;;21.87;11.67;;;;;;;4.51;96.30;101301.91;5058008;28;20213;-71
2022/01/10 04:03:53;;;;;;;23.57;11.33;;;;;;;4.52;96.05;101306.19;5056643;28;20696;-71
2022/01/10 04:06:19;;;;;;;22.33;11.73;;;;;;;4.49;96.17;101311.09;5067047;28;20740;-70
2022/01/10 04:08:45;;;;;;;22.10;11.90;;;;;;;4.47;96.52;101323.69;5068626;28;20228;-71
2022/01/10 04:11:10;;;;;;;26.23;12.00;;;;;;;4.50;96.60;101328.03;5059222;28;20182;-71
2022/01/10 04:13:36;;;;;;;25.57;12.07;;;;;;;4.50;97.01;101331.44;5054881;28;20798;-71
2022/01/10 04:16:02;;;;;;;37.07;15.47;;;;;;;4.49;96.56;101328.84;5053099;28;20304;-71
2022/01/10 04:18:28;;;;;;;34.40;16.60;;;;;;;4.49;96.31;101338.97;5054026;28;20652;-71
2022/01/10 04:20:53;;;;;;;34.10;16.17;;;;;;;4.43;95.87;101339.56;5052112;28;20178;-71
2022/01/10 04:23:20;;;;;;;34.37;15.80;;;;;;;4.43;96.03;101346.28;5055684;28;20181;-71
2022/01/10 04:25:46;;;;;;;32.37;14.90;;;;;;;4.41;95.71;101350.38;5061078;28;20201;-70
2022/01/10 04:28:13;;;;;;;33.53;15.43;;;;;;;4.41;96.13;101355.44;5063583;28;20616;-71
2022/01/10 04:30:38;;;;;;;32.57;15.37;;;;;;;4.41;95.94;101363.94;5054775;28;20280;-70
2022/01/10 04:33:04;;;;;;;37.77;14.67;;;;;;;4.38;95.50;101365.44;5055590;28;20780;-70
2022/01/10 04:35:31;;;;;;;34.90;15.30;;;;;;;4.39;95.38;101370.59;5066364;28;20262;-71
2022/01/10 04:37:57;;;;;;;32.10;13.17;;;;;;;4.30;95.73;101385.34;5066188;28;20299;-71
2022/01/10 04:40:24;;;;;;;27.00;12.40;;;;;;;4.30;95.40;101381.91;5060703;28;20283;-71
2022/01/10 04:42:51;;;;;;;29.53;12.37;;;;;;;4.30;95.47;101387.88;5055449;28;20251;-70
2022/01/10 04:45:16;;;;;;;23.23;11.57;;;;;;;4.29;95.09;101398.81;5055152;28;20189;-71
2022/01/10 04:47:42;;;;;;;23.57;10.77;;;;;;;4.28;95.37;101399.56;5068021;28;20270;-71
2022/01/10 04:52:47;;;;;;;24.47;11.43;;;;;;;4.30;94.84;101412.31;5067665;28;20595;-71
2022/01/10 04:55:13;;;;;;;22.30;11.17;;;;;;;4.27;94.83;101420.63;5045425;28;20459;-71
2022/01/10 04:57:39;;;;;;;20.87;10.63;;;;;;;4.27;94.67;101422.28;5063938;28;20225;-71
2022/01/10 05:00:08;;;;;;;27.17;12.10;;;;;;;4.28;94.66;101432.50;5055408;28;20189;-71
2022/01/10 05:02:34;;;;;;;23.47;12.07;;;;;;;4.30;95.21;101430.06;5053461;28;20899;-71
2022/01/10 05:04:59;;;;;;;26.70;12.37;;;;;;;4.24;94.41;101438.19;5055562;28;20186;-71
2022/01/10 05:07:25;;;;;;;25.50;12.37;;;;;;;4.22;94.86;101444.88;5067586;28;20220;-71
2022/01/10 05:09:50;;;;;;;22.97;12.17;;;;;;;4.26;94.70;101456.91;5058210;28;20280;-71
2022/01/10 05:12:17;;;;;;;25.33;13.03;;;;;;;4.24;94.57;101455.94;5058489;28;20755;-70
2022/01/10 05:14:43;;;;;;;19.93;11.50;;;;;;;4.22;94.22;101459.19;5056549;28;20193;-71
2022/01/10 05:17:10;;;;;;;15.27;10.83;;;;;;;4.17;94.51;101464.00;5051993;28;20753;-71
2022/01/10 05:19:36;;;;;;;17.13;10.23;;;;;;;4.13;94.36;101468.81;5059492;28;20201;-71
2022/01/10 05:22:02;;;;;;;15.40;9.70;;;;;;;4.09;94.20;101477.91;5064959;28;20254;-71
2022/01/10 05:24:28;;;;;;;14.83;9.83;;;;;;;4.06;93.45;101484.50;5056455;28;20276;-71
2022/01/10 05:26:53;;;;;;;13.33;9.30;;;;;;;4.06;93.32;101487.03;5053607;28;20314;-71
2022/01/10 05:29:22;;;;;;;16.07;9.47;;;;;;;4.05;93.10;101486.13;5055138;28;20270;-71
2022/01/10 05:31:47;;;;;;;13.40;10.03;;;;;;;4.04;93.55;101498.72;5051180;28;20260;-70
2022/01/10 05:34:25;;;;;;;13.63;9.60;;;;;;;4.04;93.81;101497.06;5077080;28;20188;-71
2022/01/10 05:36:51;;;;;;;13.70;9.60;;;;;;;4.01;93.64;101507.00;5055142;28;20216;-71
2022/01/10 05:39:17;;;;;;;12.10;8.90;;;;;;;4.00;93.39;101509.50;5054713;28;20186;-71
2022/01/10 05:41:42;;;;;;;12.33;9.37;;;;;;;3.94;93.43;101512.53;5057344;28;20298;-71
2022/01/10 05:44:08;;;;;;;14.57;10.20;;;;;;;3.96;93.37;101517.69;5054959;28;20706;-71
2022/01/10 05:46:38;;;;;;;12.17;9.27;;;;;;;3.94;93.37;101531.91;5061900;28;20209;-71
2022/01/10 05:49:04;;;;;;;13.30;9.70;;;;;;;3.89;92.58;101541.81;5054548;28;20321;-71
2022/01/10 05:51:36;;;;;;;11.67;9.33;;;;;;;3.87;93.07;101543.34;5055818;28;20178;-71
2022/01/10 05:54:15;;;;;;;12.70;10.37;;;;;;;3.85;92.44;101551.66;5054367;28;20280;-71
2022/01/10 05:56:41;;;;;;;12.63;9.83;;;;;;;3.82;92.88;101552.34;5054054;28;20239;-71
2022/01/10 05:59:06;;;;;;;11.50;9.67;;;;;;;3.81;92.26;101565.81;5054321;28;20209;-71
2022/01/10 06:01:32;;;;;;;14.63;10.67;;;;;;;3.76;92.35;101569.75;5054909;28;20205;-71
2022/01/10 06:04:05;;;;;;;13.67;10.90;;;;;;;3.73;92.82;101579.69;5054348;28;20193;-70
2022/01/10 06:06:37;;;;;;;13.77;11.20;;;;;;;3.76;92.04;101582.41;5061651;28;20209;-70
2022/01/10 06:09:03;;;;;;;12.57;10.33;;;;;;;3.76;92.40;101589.13;5053629;28;20194;-70
2022/01/10 06:11:28;;;;;;;13.03;10.80;;;;;;;3.70;92.58;101594.72;5053263;28;20244;-71
2022/01/10 06:13:54;;;;;;;13.50;10.40;;;;;;;3.74;92.19;101603.38;5054338;28;20182;-70
2022/01/10 06:16:20;;;;;;;12.57;10.37;;;;;;;3.68;92.70;101606.41;5050676;28;20205;-71
2022/01/10 06:18:46;;;;;;;11.73;10.13;;;;;;;3.69;92.76;101614.88;5052889;28;20203;-70
2022/01/10 06:21:11;;;;;;;13.30;11.00;;;;;;;3.69;92.65;101615.72;5064174;28;20204;-71
2022/01/10 06:23:36;;;;;;;11.90;10.40;;;;;;;3.69;92.88;101620.78;5064981;28;20188;-70
2022/01/10 06:26:02;;;;;;;12.40;9.80;;;;;;;3.66;92.73;101617.22;5050421;28;20202;-71
2022/01/10 06:28:29;;;;;;;13.73;11.13;;;;;;;3.63;93.01;101632.25;5064822;28;20189;-70
2022/01/10 06:30:56;;;;;;;14.40;11.20;;;;;;;3.65;92.32;101636.63;5050464;28;20188;-71
2022/01/10 06:33:24;;;;;;;12.23;10.13;;;;;;;3.65;92.15;101641.69;5052522;28;20302;-71
2022/01/10 06:35:51;;;;;;;14.17;11.23;;;;;;;3.63;92.25;101645.75;5051068;28;20190;-71
2022/01/10 06:38:16;;;;;;;12.83;11.03;;;;;;;3.63;92.75;101652.50;5057216;28;20229;-70
2022/01/10 06:40:43;;;;;;;15.13;11.37;;;;;;;3.64;92.73;101655.09;5053003;28;20826;-71
2022/01/10 06:43:08;;;;;;;14.93;11.73;;;;;;;3.60;92.97;101665.84;5060888;28;20303;-71
2022/01/10 06:45:34;;;;;;;13.47;10.90;;;;;;;3.61;93.15;101664.19;5062796;28;20200;-71
2022/01/10 06:48:01;;;;;;;13.90;11.43;;;;;;;3.63;92.85;101671.09;5061635;28;20557;-70
2022/01/10 06:50:27;;;;;;;13.80;11.60;;;;;;;3.64;93.25;101677.03;5054316;28;20655;-71
2022/01/10 06:52:54;;;;;;;12.20;10.27;;;;;;;3.67;92.84;101687.31;5054048;28;20192;-70
2022/01/10 06:55:20;;;;;;;14.10;11.17;;;;;;;3.66;92.78;101690.66;5061766;28;20212;-70
2022/01/10 06:57:45;;;;;;;14.73;11.77;;;;;;;3.66;93.01;101700.78;5065099;28;20255;-70
2022/01/10 07:00:15;;;;;;;15.07;11.40;;;;;;;3.67;93.52;101705.94;5053807;28;20243;-71
2022/01/10 07:02:46;;;;;;;14.10;11.50;;;;;;;3.66;93.20;101710.91;5047975;28;20205;-70
2022/01/10 07:05:12;;;;;;;13.87;11.23;;;;;;;3.66;93.77;101718.50;5071082;28;20189;-70
2022/01/10 07:07:37;;;;;;;14.07;11.57;;;;;;;3.64;93.83;101731.06;5057887;28;20212;-70
2022/01/10 07:10:13;;;;;;;15.90;12.23;;;;;;;3.63;93.65;101738.59;5053912;28;20212;-70
2022/01/10 07:12:39;;;;;;;16.07;12.13;;;;;;;3.63;93.67;101749.56;5054756;28;20276;-71
2022/01/10 07:15:07;;;;;;;15.00;12.10;;;;;;;3.62;93.59;101755.41;5053874;28;20190;-71
2022/01/10 07:17:33;;;;;;;15.53;12.43;;;;;;;3.65;94.33;101773.34;5048783;28;20301;-70
2022/01/10 07:20:00;;;;;;;15.63;12.43;;;;;;;3.60;94.05;101773.84;5054902;28;20210;-71
2022/01/10 07:22:31;;;;;;;19.27;15.07;;;;;;;3.61;94.16;101781.53;5053234;28;20205;-71
2022/01/10 07:24:57;;;;;;;17.10;13.27;;;;;;;3.63;94.17;101789.22;5055556;28;20186;-71
2022/01/10 07:27:22;;;;;;;19.13;13.53;;;;;;;3.61;95.41;101794.19;5058228;28;20213;-70
2022/01/10 07:29:50;;;;;;;16.37;12.27;;;;;;;3.64;94.32;101798.56;5065606;28;21401;-71
2022/01/10 07:32:17;;;;;;;18.10;13.43;;;;;;;3.63;94.65;101800.22;5067515;28;20737;-71
2022/01/10 07:34:42;;;;;;;16.53;12.87;;;;;;;3.65;94.99;101806.25;5058116;28;20181;-71
2022/01/10 07:37:07;;;;;;;19.63;13.97;;;;;;;3.67;94.93;101807.22;5056469;28;20661;-70
2022/01/10 07:39:33;;;;;;;19.07;14.23;;;;;;;3.68;94.74;101808.97;5057688;28;20666;-71
2022/01/10 07:41:58;;;;;;;17.93;13.27;;;;;;;3.70;94.66;101815.00;5051201;28;20693;-71
2022/01/10 07:44:42;;;;;;;17.23;13.33;;;;;;;3.71;94.51;101823.47;5052626;28;20195;-71
2022/01/10 07:47:08;;;;;;;16.07;12.97;;;;;;;3.71;94.89;101839.53;5051329;28;20201;-71
2022/01/10 07:49:34;;;;;;;18.40;13.43;;;;;;;3.69;94.27;101845.28;5055348;28;20251;-71
2022/01/10 07:52:00;;;;;;;19.30;13.70;;;;;;;3.69;94.24;101840.22;5060534;28;20190;-71
2022/01/10 07:54:26;;;;;;;17.50;13.77;;;;;;;3.68;94.24;101851.16;5060571;28;20209;-70
2022/01/10 07:56:52;;;;;;;19.87;13.30;;;;;;;3.72;94.70;101856.47;5055989;28;20204;-70
2022/01/10 07:59:19;;;;;;;16.93;12.97;;;;;;;3.71;94.83;101869.03;5063181;28;20188;-71
2022/01/10 08:01:46;;;;;;;17.93;13.00;;;;;;;3.71;94.44;101875.00;5064923;28;20286;-70
2022/01/10 08:04:12;;;;;;;19.87;13.67;;;;;;;3.74;94.83;101880.25;5059005;28;20193;-70
2022/01/10 08:06:37;;;;;;;19.07;13.90;;;;;;;3.73;94.75;101886.09;5053361;28;20208;-71
2022/01/10 08:09:02;;;;;;;19.40;14.23;;;;;;;3.73;94.71;101887.75;5062060;28;20188;-71
2022/01/10 08:11:28;;;;;;;20.63;15.30;;;;;;;3.75;94.34;101886.19;5056994;28;20319;-70
2022/01/10 08:13:54;;;;;;;22.77;16.00;;;;;;;3.75;94.91;101897.22;5054836;28;20633;-71
2022/01/10 08:16:19;;;;;;;20.60;15.10;;;;;;;3.78;94.64;101906.66;5059720;28;20201;-71
2022/01/10 08:18:45;;;;;;;21.67;15.33;;;;;;;3.80;94.49;101910.16;5055755;28;20249;-70
2022/01/10 08:21:10;;;;;;;23.53;16.57;;;;;;;3.79;94.53;101918.53;5071671;28;20173;-70
2022/01/10 08:23:36;;;;;;;21.47;15.40;;;;;;;3.78;94.65;101921.84;5071809;28;20181;-70
2022/01/10 08:26:03;;;;;;;24.67;16.83;;;;;;;3.80;94.93;101923.69;5071405;28;20209;-70
2022/01/10 08:28:29;;;;;;;25.07;16.50;;;;;;;3.81;94.67;101930.50;5071508;28;20264;-70
2022/01/10 08:30:54;;;;;;;25.87;17.17;;;;;;;3.84;94.58;101940.84;5071614;28;20694;-70
2022/01/10 08:33:20;;;;;;;27.37;18.37;;;;;;;3.83;94.46;101944.16;5071928;28;20268;-71
2022/01/10 08:35:45;;;;;;;25.03;16.83;;;;;;;3.84;94.08;101953.50;5058200;28;20228;-70
2022/01/10 08:38:11;;;;;;;30.03;18.67;;;;;;;3.85;94.45;101955.25;5069140;28;20192;-69
2022/01/10 08:40:36;;;;;;;28.57;18.73;;;;;;;3.86;94.54;101959.53;5061808;28;20669;-72
2022/01/10 08:43:06;;;;;;;28.73;18.47;;;;;;;3.89;94.17;101977.47;5051041;28;20575;-73
2022/01/10 08:45:32;;;;;;;30.70;18.17;;;;;;;4.02;93.94;101966.44;5049756;28;20190;-72
2022/01/10 08:47:57;;;;;;;26.60;17.47;;;;;;;4.12;93.75;101966.25;5050782;28;20210;-70
2022/01/10 08:50:25;;;;;;;27.23;17.20;;;;;;;4.16;93.08;101971.63;5039082;28;20197;-70
2022/01/10 08:52:51;;;;;;;25.97;17.50;;;;;;;4.16;92.77;101968.19;5063320;28;20708;-70
2022/01/10 08:55:16;;;;;;;26.93;17.60;;;;;;;4.18;93.04;101976.78;5070418;28;20197;-70
2022/01/10 08:57:41;;;;;;;28.07;17.70;;;;;;;4.20;92.74;101977.75;5069130;28;20299;-70
2022/01/10 09:00:08;;;;;;;27.60;18.20;;;;;;;4.22;92.85;101973.63;5070660;28;20197;-70
2022/01/10 09:02:34;;;;;;;25.97;18.10;;;;;;;4.20;92.95;101985.34;5070478;28;20205;-69
2022/01/10 09:04:59;;;;;;;29.20;17.97;;;;;;;4.19;92.60;101987.00;5070677;28;20208;-70
2022/01/10 09:07:24;;;;;;;30.87;18.83;;;;;;;4.17;92.15;101991.09;5070050;28;20239;-70
2022/01/10 09:09:50;;;;;;;30.80;18.50;;;;;;;4.22;92.38;101999.88;5070202;28;20193;-70
2022/01/10 09:12:15;;;;;;;39.27;25.43;;;;;;;4.21;92.27;101999.75;5070225;28;20540;-70
2022/01/10 09:14:40;;;;;;;29.97;19.80;;;;;;;4.20;92.41;102003.97;5069679;28;20193;-70
2022/01/10 09:17:06;;;;;;;32.67;21.47;;;;;;;4.16;92.53;102011.28;5069810;28;20269;-70
2022/01/10 09:19:31;;;;;;;34.03;21.00;;;;;;;4.23;92.77;102013.44;5069897;28;20197;-70
2022/01/10 09:21:57;;;;;;;33.23;20.17;;;;;;;4.25;92.25;102012.75;5069914;28;20567;-69
2022/01/10 09:24:23;;;;;;;35.83;21.23;;;;;;;4.32;92.54;102019.09;5065189;28;20657;-70
2022/01/10 09:26:48;;;;;;;34.70;21.47;;;;;;;4.41;92.76;102024.69;5049945;28;20210;-71
2022/01/10 09:29:14;;;;;;;38.43;21.93;;;;;;;4.45;92.74;102026.66;5058524;28;20245;-71
2022/01/10 09:31:39;;;;;;;39.70;23.23;;;;;;;4.47;92.66;102030.16;5069807;28;20177;-71
2022/01/10 09:34:05;;;;;;;40.57;22.40;;;;;;;4.53;92.49;102038.16;5068323;28;20192;-71
2022/01/10 09:36:34;;;;;;;40.47;21.77;;;;;;;4.54;92.63;102035.72;5068409;28;20277;-71
2022/01/10 09:39:00;;;;;;;52.10;26.43;;;;;;;4.49;91.89;102038.72;5069526;28;20207;-71
2022/01/10 09:41:26;;;;;;;44.70;24.10;;;;;;;4.55;91.84;102049.28;5069418;28;20217;-71
2022/01/10 09:43:56;;;;;;;40.00;21.80;;;;;;;4.54;92.19;102050.94;5069464;28;20207;-71
2022/01/10 09:46:23;;;;;;;42.37;23.77;;;;;;;4.50;92.39;102054.06;5068003;28;20274;-70
2022/01/10 09:48:48;;;;;;;48.77;25.60;;;;;;;4.52;92.30;102052.47;5069396;28;20193;-72
2022/01/10 09:51:14;;;;;;;49.37;25.27;;;;;;;4.53;92.36;102055.91;5069298;28;20173;-71
2022/01/10 09:53:40;;;;;;;52.63;27.27;;;;;;;4.52;92.48;102062.63;5067860;28;20319;-71
2022/01/10 09:56:05;;;;;;;50.83;27.30;;;;;;;4.52;92.03;102066.84;5067918;28;20595;-70
2022/01/10 09:58:30;;;;;;;55.93;27.97;;;;;;;4.66;91.51;102066.91;5069295;28;20185;-71
2022/01/10 10:00:58;;;;;;;48.93;26.80;;;;;;;4.71;91.49;102075.69;5067862;28;20281;-71
2022/01/10 10:03:24;;;;;;;51.37;25.90;;;;;;;4.76;91.44;102073.44;5068848;28;20255;-70
2022/01/10 10:05:53;;;;;;;51.00;25.83;;;;;;;4.82;91.46;102079.75;5069137;28;20188;-70
2022/01/10 10:08:24;;;;;;;50.83;25.00;;;;;;;4.99;90.67;102078.25;5069016;28;20784;-70
2022/01/10 10:10:50;;;;;;;47.07;23.83;;;;;;;5.15;90.21;102084.34;5068527;28;20169;-71
2022/01/10 10:13:16;;;;;;;40.17;22.30;;;;;;;5.16;88.84;102086.09;5068846;28;20250;-71
2022/01/10 10:15:44;;;;;;;45.63;27.87;;;;;;;5.21;88.65;102099.94;5052821;28;20684;-71
2022/01/10 10:18:14;;;;;;;40.47;22.67;;;;;;;5.25;88.22;102103.56;5048768;28;20192;-70
2022/01/10 10:20:42;;;;;;;38.60;22.17;;;;;;;5.23;88.60;102113.63;5060689;28;20250;-70
2022/01/10 10:23:11;;;;;;;46.00;25.67;;;;;;;5.18;88.45;102116.66;5068592;28;20208;-70
2022/01/10 10:25:37;;;;;;;41.07;23.10;;;;;;;5.11;88.65;102120.47;5067911;28;20681;-71
2022/01/10 10:28:02;;;;;;;44.63;23.50;;;;;;;5.03;89.15;102136.94;5059079;28;20193;-70
2022/01/10 10:30:31;;;;;;;41.23;23.50;;;;;;;4.95;90.03;102145.72;5067663;28;20193;-71
2022/01/10 10:33:23;;;;;;;43.63;25.50;;;;;;;4.94;90.14;102143.97;5068990;28;20188;-70
2022/01/10 10:35:57;;;;;;;48.30;24.83;;;;;;;4.92;90.12;102160.72;5068421;28;20272;-71
2022/01/10 10:38:25;;;;;;;45.87;23.47;;;;;;;4.92;90.39;102165.81;5067185;28;20188;-70
2022/01/10 10:40:50;;;;;;;43.33;24.23;;;;;;;4.92;90.01;102164.94;5068855;28;20664;-70
2022/01/10 10:43:15;;;;;;;43.10;24.00;;;;;;;4.92;90.59;102172.56;5067379;28;20209;-70
2022/01/10 10:45:41;;;;;;;39.93;22.37;;;;;;;4.88;90.20;102176.53;5068416;28;20207;-70
2022/01/10 10:48:07;;;;;;;39.97;23.30;;;;;;;4.94;90.28;102183.69;5068681;28;20893;-70
2022/01/10 10:50:45;;;;;;;40.30;23.63;;;;;;;4.96;90.79;102182.09;5068719;28;20311;-70
2022/01/10 10:53:13;;;;;;;39.60;23.03;;;;;;;5.00;89.93;102181.50;5068683;28;20181;-70
2022/01/10 10:55:40;;;;;;;35.83;21.53;;;;;;;5.02;89.45;102193.50;5068458;28;20181;-70
2022/01/10 10:58:07;;;;;;;39.43;23.17;;;;;;;5.03;89.13;102191.88;5068560;28;20189;-69
2022/01/10 11:00:33;;;;;;;41.40;24.47;;;;;;;5.07;89.27;102196.34;5068991;28;20192;-70
2022/01/10 11:02:58;;;;;;;41.60;25.87;;;;;;;5.05;88.98;102198.78;5068565;28;20220;-70
2022/01/10 11:05:24;;;;;;;41.90;23.10;;;;;;;5.11;89.53;102203.38;5068521;28;20177;-69
2022/01/10 11:07:49;;;;;;;36.70;22.57;;;;;;;5.11;89.70;102201.72;5067004;28;20690;-70
2022/01/10 11:10:15;;;;;;;38.43;23.57;;;;;;;5.09;89.31;102198.22;5068299;28;20185;-70
2022/01/10 11:12:48;;;;;;;39.43;22.67;;;;;;;5.14;89.41;102199.38;5068423;28;20865;-69
2022/01/10 11:15:14;;;;;;;34.30;21.17;;;;;;;5.07;89.20;102204.81;5061259;28;20250;-70
2022/01/10 11:17:40;;;;;;;36.50;22.83;;;;;;;5.10;89.08;102206.69;5048800;28;20213;-70
2022/01/10 11:20:17;;;;;;;36.23;21.80;;;;;;;5.09;88.83;102210.00;5048243;28;20205;-72
2022/01/10 11:22:45;;;;;;;37.30;22.20;;;;;;;5.28;88.92;102210.38;5030858;28;20229;-72
2022/01/10 11:25:42;;;;;;;34.83;21.50;;;;;;;5.32;88.27;102214.88;5047051;28;20276;-74
2022/01/10 11:28:17;;;;;;;35.53;21.47;;;;;;;5.54;88.08;102216.28;5052123;28;20213;-69
2022/01/10 11:30:45;;;;;;;36.83;21.63;;;;;;;5.58;87.04;102223.28;5069316;28;20188;-71
2022/01/10 11:33:11;;;;;;;32.60;21.00;;;;;;;5.71;86.61;102228.34;5072115;28;20221;-71